Terminal Aerodrome Forecast
Issued by NWS

Home | Current Version | Previous Version | Text Only | Print | Product List | Glossary On
Versions: 1 2 3 4 5 6 7 8 9 10 11 12 13 14 15 16 17 18
329
FTUS44 KTSA 181513 AAA
TAFFYV
TAF AMD
KFYV 181513Z 1815/1912 30022G30KT P6SM VCSH BKN030
      TEMPO 1815/1818 5SM -RA BR BKN015
     FM181900 33018G27KT P6SM BKN050
     FM190000 32008KT P6SM SKC=

USA.gov is the U.S. government's official web portal to all federal, state and local government web resources and services.